Time;durP1;ratioP1;P1;durP2;ratioP2;P2;SDS_P1;SDS_P2;PMS_P1;PMS_P2;Temp;Humidity;BMP_temperature;BMP_pressure;BME280_temperature;BME280_humidity;BME280_pressure;Samples;Min_cycle;Max_cycle;Signal;HPM_P1;HPM_P2
2020/12/12 00:00:18;;;;;;;15.90;7.43;;;;;;;;;;5055205;28;20024;-67
2020/12/12 00:02:43;;;;;;;15.05;7.63;;;;;;;;;;5058387;28;20314;-67
2020/12/12 00:05:09;;;;;;;11.48;6.88;;;;;;;;;;5064085;28;20031;-68
2020/12/12 00:07:34;;;;;;;21.67;8.32;;;;;;;;;;5059316;28;20035;-69
2020/12/12 00:09:59;;;;;;;12.80;6.53;;;;;;;;;;5065451;28;20064;-67
2020/12/12 00:12:24;;;;;;;19.80;9.13;;;;;;;;;;5061673;28;20370;-67
2020/12/12 00:14:50;;;;;;;14.02;5.65;;;;;;;;;;5064149;28;20029;-67
2020/12/12 00:17:15;;;;;;;15.00;7.32;;;;;;;;;;5058115;28;20452;-67
2020/12/12 00:19:40;;;;;;;17.57;9.03;;;;;;;;;;5061197;28;20458;-67
2020/12/12 00:22:05;;;;;;;18.08;9.35;;;;;;;;;;5065587;28;20263;-67
2020/12/12 00:24:30;;;;;;;9.48;4.32;;;;;;;;;;5063306;28;20020;-67
2020/12/12 00:26:56;;;;;;;15.70;9.55;;;;;;;;;;5064939;28;20060;-67
2020/12/12 00:29:21;;;;;;;13.63;8.05;;;;;;;;;;5059588;28;20024;-67
2020/12/12 00:31:52;;;;;;;18.17;9.48;;;;;;;;;;5068152;28;20488;-69
2020/12/12 00:34:17;;;;;;;19.63;10.00;;;;;;;;;;5061593;28;20024;-67
2020/12/12 00:36:42;;;;;;;13.53;7.20;;;;;;;;;;5052149;28;20028;-68
2020/12/12 00:39:08;;;;;;;16.98;6.63;;;;;;;;;;5057543;28;20733;-68
2020/12/12 00:41:34;;;;;;;17.73;8.70;;;;;;;;;;5058840;28;20355;-67
2020/12/12 00:43:59;;;;;;;15.73;7.45;;;;;;;;;;5058221;28;20058;-68
2020/12/12 00:46:26;;;;;;;12.37;6.07;;;;;;;;;;5063452;28;20029;-67
2020/12/12 00:48:51;;;;;;;16.80;9.20;;;;;;;;;;5057336;28;20354;-67
2020/12/12 00:51:17;;;;;;;14.57;8.75;;;;;;;;;;5055461;28;20112;-67
2020/12/12 00:53:42;;;;;;;13.77;6.90;;;;;;;;;;5063347;28;20682;-67
2020/12/12 00:56:07;;;;;;;10.73;5.70;;;;;;;;;;5056818;28;20255;-67
2020/12/12 00:58:32;;;;;;;13.13;7.50;;;;;;;;;;5065798;28;20274;-68
2020/12/12 01:00:57;;;;;;;9.60;5.33;;;;;;;;;;5067197;28;20362;-67
2020/12/12 01:03:22;;;;;;;11.70;6.53;;;;;;;;;;5064931;28;20263;-68
2020/12/12 01:05:48;;;;;;;11.90;6.37;;;;;;;;;;5060110;28;20298;-67
2020/12/12 01:08:13;;;;;;;8.63;5.55;;;;;;;;;;5060732;28;20267;-67
2020/12/12 01:10:40;;;;;;;13.82;7.30;;;;;;;;;;5055184;28;20021;-67
2020/12/12 01:13:05;;;;;;;14.80;8.25;;;;;;;;;;5062700;28;20047;-68
2020/12/12 01:15:30;;;;;;;13.00;6.40;;;;;;;;;;5066444;28;20531;-67
2020/12/12 01:17:55;;;;;;;10.63;5.63;;;;;;;;;;5056886;28;20312;-68
2020/12/12 01:20:21;;;;;;;11.30;5.13;;;;;;;;;;5060887;28;20380;-67
2020/12/12 01:22:47;;;;;;;12.25;5.10;;;;;;;;;;5052474;28;20382;-67
2020/12/12 01:25:12;;;;;;;8.27;4.38;;;;;;;;;;5057789;28;20358;-67
2020/12/12 01:27:37;;;;;;;15.27;5.57;;;;;;;;;;5058044;28;20085;-67
2020/12/12 01:30:03;;;;;;;14.40;7.55;;;;;;;;;;5059078;28;20267;-68
2020/12/12 01:32:28;;;;;;;10.13;6.10;;;;;;;;;;5070008;28;20469;-67
2020/12/12 01:34:55;;;;;;;12.85;6.15;;;;;;;;;;5072068;28;20043;-67
2020/12/12 01:37:20;;;;;;;9.20;5.18;;;;;;;;;;5070143;28;20020;-67
2020/12/12 01:39:45;;;;;;;13.63;7.63;;;;;;;;;;5054350;28;20477;-68
2020/12/12 01:42:10;;;;;;;14.03;8.50;;;;;;;;;;5059473;28;20255;-67
2020/12/12 01:44:35;;;;;;;14.52;8.60;;;;;;;;;;5060465;28;20838;-67
2020/12/12 01:47:01;;;;;;;12.30;6.75;;;;;;;;;;5067429;28;20045;-67
2020/12/12 01:49:27;;;;;;;15.20;9.20;;;;;;;;;;5057042;28;20064;-68
2020/12/12 01:51:52;;;;;;;7.90;5.40;;;;;;;;;;5067958;28;20485;-68
2020/12/12 01:54:18;;;;;;;10.32;5.88;;;;;;;;;;5067488;28;20616;-68
2020/12/12 01:56:46;;;;;;;12.52;5.90;;;;;;;;;;5060554;28;20033;-67
2020/12/12 01:59:11;;;;;;;12.60;5.88;;;;;;;;;;5062441;28;20024;-67
2020/12/12 02:01:38;;;;;;;13.60;7.18;;;;;;;;;;5069801;28;20090;-68
2020/12/12 02:04:04;;;;;;;12.52;5.50;;;;;;;;;;5058546;28;20021;-68
2020/12/12 02:06:29;;;;;;;19.75;7.45;;;;;;;;;;5059058;28;20012;-67
2020/12/12 02:08:54;;;;;;;11.38;6.97;;;;;;;;;;5062429;28;20489;-68
2020/12/12 02:11:20;;;;;;;11.32;4.78;;;;;;;;;;5062640;28;20033;-68
2020/12/12 02:13:46;;;;;;;10.13;5.78;;;;;;;;;;5065335;28;20435;-68
2020/12/12 02:16:12;;;;;;;9.82;5.72;;;;;;;;;;5065262;28;20021;-68
2020/12/12 02:18:38;;;;;;;7.60;3.90;;;;;;;;;;5054221;28;20395;-67
2020/12/12 02:21:03;;;;;;;17.65;7.22;;;;;;;;;;5056893;28;20021;-67
2020/12/12 02:23:29;;;;;;;12.90;6.18;;;;;;;;;;5061418;28;20028;-68
2020/12/12 02:25:56;;;;;;;11.80;4.68;;;;;;;;;;5071388;28;20024;-67
2020/12/12 02:28:24;;;;;;;13.60;6.32;;;;;;;;;;5053300;28;20027;-68
2020/12/12 02:30:50;;;;;;;16.42;8.25;;;;;;;;;;5064537;28;20021;-68
2020/12/12 02:33:15;;;;;;;11.82;5.90;;;;;;;;;;5057635;28;20030;-67
2020/12/12 02:35:41;;;;;;;13.60;6.75;;;;;;;;;;5070475;28;20036;-67
2020/12/12 02:38:06;;;;;;;15.20;8.25;;;;;;;;;;5055572;28;20031;-67
2020/12/12 02:40:31;;;;;;;12.32;5.38;;;;;;;;;;5059140;28;20029;-67
2020/12/12 02:42:56;;;;;;;11.68;6.95;;;;;;;;;;5066998;28;20017;-68
2020/12/12 02:45:21;;;;;;;19.83;8.00;;;;;;;;;;5069129;28;20075;-68
2020/12/12 02:47:47;;;;;;;17.52;7.75;;;;;;;;;;5065214;28;20297;-68
2020/12/12 02:50:13;;;;;;;7.20;3.90;;;;;;;;;;5066528;28;20017;-68
2020/12/12 02:52:38;;;;;;;10.88;5.43;;;;;;;;;;5061956;28;20551;-67
2020/12/12 02:55:05;;;;;;;12.93;6.70;;;;;;;;;;5060481;28;20111;-68
2020/12/12 02:57:30;;;;;;;7.15;4.57;;;;;;;;;;5070351;28;20039;-68
2020/12/12 02:59:56;;;;;;;16.73;7.63;;;;;;;;;;5064752;28;20127;-68
2020/12/12 03:02:21;;;;;;;17.48;7.93;;;;;;;;;;5057349;28;20025;-68
2020/12/12 03:04:46;;;;;;;16.95;7.90;;;;;;;;;;5056782;28;20066;-67
2020/12/12 03:07:11;;;;;;;15.65;8.10;;;;;;;;;;5064604;28;20082;-67
2020/12/12 03:09:36;;;;;;;11.45;5.63;;;;;;;;;;5068443;28;20077;-68
2020/12/12 03:12:02;;;;;;;12.10;5.38;;;;;;;;;;5064393;28;20037;-67
2020/12/12 03:14:28;;;;;;;15.63;6.95;;;;;;;;;;5058048;28;20465;-68
2020/12/12 03:16:53;;;;;;;18.77;7.15;;;;;;;;;;5065291;28;20362;-68
2020/12/12 03:19:18;;;;;;;10.53;5.40;;;;;;;;;;5058877;28;20035;-67
2020/12/12 03:21:43;;;;;;;24.37;10.10;;;;;;;;;;5070288;28;20267;-67
2020/12/12 03:24:09;;;;;;;17.87;8.47;;;;;;;;;;5065708;28;20275;-67
2020/12/12 03:26:34;;;;;;;18.88;11.07;;;;;;;;;;5069302;28;20336;-67
2020/12/12 03:28:59;;;;;;;11.85;6.50;;;;;;;;;;5068474;28;20124;-67
2020/12/12 03:31:24;;;;;;;19.90;9.60;;;;;;;;;;5035743;28;20071;-68
2020/12/12 03:33:49;;;;;;;14.03;5.47;;;;;;;;;;5066240;28;20310;-67
2020/12/12 03:36:14;;;;;;;14.35;7.55;;;;;;;;;;5060102;28;20278;-67
2020/12/12 03:38:39;;;;;;;17.63;9.20;;;;;;;;;;5056085;28;20036;-67
2020/12/12 03:41:05;;;;;;;17.03;9.20;;;;;;;;;;5058321;28;20270;-66
2020/12/12 03:43:30;;;;;;;22.43;11.07;;;;;;;;;;5054387;28;20283;-68
2020/12/12 03:45:55;;;;;;;17.40;7.43;;;;;;;;;;5072091;28;20263;-67
2020/12/12 03:48:20;;;;;;;14.90;7.80;;;;;;;;;;5060622;28;20278;-68
2020/12/12 03:50:45;;;;;;;12.40;5.63;;;;;;;;;;5062406;28;20025;-67
2020/12/12 03:53:10;;;;;;;17.95;9.90;;;;;;;;;;5061583;28;20312;-67
2020/12/12 03:55:36;;;;;;;21.60;11.27;;;;;;;;;;5070398;28;20028;-67
2020/12/12 03:58:01;;;;;;;17.08;9.90;;;;;;;;;;5058744;28;20036;-67
2020/12/12 04:00:26;;;;;;;10.05;5.28;;;;;;;;;;5063993;28;20377;-68
2020/12/12 04:02:52;;;;;;;13.43;7.20;;;;;;;;;;5040810;28;20386;-67
2020/12/12 04:05:17;;;;;;;19.70;8.23;;;;;;;;;;5059910;28;20393;-67
2020/12/12 04:07:42;;;;;;;16.90;8.07;;;;;;;;;;5058779;28;20620;-67
2020/12/12 04:10:07;;;;;;;24.03;10.17;;;;;;;;;;5068747;28;20350;-67
2020/12/12 04:12:32;;;;;;;21.77;10.73;;;;;;;;;;5059071;28;20270;-67
2020/12/12 04:14:58;;;;;;;24.75;11.90;;;;;;;;;;5061231;28;20291;-67
2020/12/12 04:17:23;;;;;;;22.08;10.32;;;;;;;;;;5062007;28;20469;-67
2020/12/12 04:19:48;;;;;;;21.07;10.27;;;;;;;;;;5061293;28;20036;-67
2020/12/12 04:22:13;;;;;;;22.13;11.40;;;;;;;;;;5061561;28;20267;-67
2020/12/12 04:24:38;;;;;;;20.40;9.77;;;;;;;;;;5060191;28;20274;-67
2020/12/12 04:27:03;;;;;;;22.17;11.33;;;;;;;;;;5055375;28;20280;-67
2020/12/12 04:29:28;;;;;;;23.93;11.30;;;;;;;;;;5055331;28;20350;-67
2020/12/12 04:31:54;;;;;;;18.25;9.15;;;;;;;;;;5062975;28;20285;-67
2020/12/12 04:34:19;;;;;;;13.50;7.60;;;;;;;;;;5051166;28;20369;-67
2020/12/12 04:36:44;;;;;;;20.23;10.63;;;;;;;;;;5059037;28;20036;-67
2020/12/12 04:39:09;;;;;;;15.97;8.20;;;;;;;;;;5062607;28;20066;-67
2020/12/12 04:41:35;;;;;;;22.52;8.80;;;;;;;;;;5051091;28;20764;-67
2020/12/12 04:44:00;;;;;;;22.30;12.18;;;;;;;;;;5061274;28;20033;-68
2020/12/12 04:46:26;;;;;;;27.42;11.93;;;;;;;;;;5058468;28;20028;-67
2020/12/12 04:48:51;;;;;;;21.95;11.40;;;;;;;;;;5051067;28;20029;-67
2020/12/12 04:51:17;;;;;;;21.85;9.68;;;;;;;;;;5064163;28;20029;-68
2020/12/12 04:53:43;;;;;;;24.15;11.77;;;;;;;;;;5052329;28;20032;-68
2020/12/12 04:56:12;;;;;;;24.23;10.73;;;;;;;;;;5054786;28;20060;-67
2020/12/12 04:58:38;;;;;;;20.92;11.10;;;;;;;;;;5054590;28;20043;-67
2020/12/12 05:01:04;;;;;;;23.45;12.18;;;;;;;;;;5066189;28;20020;-67
2020/12/12 05:03:31;;;;;;;22.70;11.73;;;;;;;;;;5055285;28;20020;-67
2020/12/12 05:05:56;;;;;;;20.73;9.63;;;;;;;;;;5061732;28;20133;-67
2020/12/12 05:08:22;;;;;;;22.17;10.97;;;;;;;;;;5063165;28;20490;-67
2020/12/12 05:10:51;;;;;;;26.67;13.63;;;;;;;;;;5055498;28;20255;-67
2020/12/12 05:13:27;;;;;;;29.35;13.10;;;;;;;;;;5054886;28;20099;-66
2020/12/12 05:15:54;;;;;;;38.25;15.95;;;;;;;;;;5051551;28;20025;-67
2020/12/12 05:18:20;;;;;;;22.45;9.73;;;;;;;;;;5062469;28;20025;-67
2020/12/12 05:20:45;;;;;;;29.80;14.05;;;;;;;;;;5064477;28;20020;-67
2020/12/12 05:23:11;;;;;;;31.10;14.48;;;;;;;;;;5061588;28;20088;-67
2020/12/12 05:25:37;;;;;;;28.73;15.40;;;;;;;;;;5060167;28;20017;-67
2020/12/12 05:28:03;;;;;;;26.27;13.20;;;;;;;;;;5057682;28;20025;-67
2020/12/12 05:30:28;;;;;;;28.50;13.88;;;;;;;;;;5061149;28;20024;-67
2020/12/12 05:32:53;;;;;;;26.90;13.03;;;;;;;;;;5062659;28;20020;-67
2020/12/12 05:35:18;;;;;;;27.60;14.60;;;;;;;;;;5063474;28;20274;-67
2020/12/12 05:37:43;;;;;;;22.58;8.98;;;;;;;;;;5068764;28;20057;-67
2020/12/12 05:40:09;;;;;;;27.08;14.93;;;;;;;;;;5062080;28;20029;-67
2020/12/12 05:42:34;;;;;;;26.15;12.52;;;;;;;;;;5051357;28;20476;-67
2020/12/12 05:44:59;;;;;;;21.17;7.28;;;;;;;;;;5053120;28;20651;-67
2020/12/12 05:47:25;;;;;;;26.47;14.47;;;;;;;;;;5051892;28;20078;-67
2020/12/12 05:49:50;;;;;;;24.25;13.52;;;;;;;;;;5053506;28;20278;-66
2020/12/12 05:52:17;;;;;;;22.50;8.90;;;;;;;;;;5051409;28;20017;-67
2020/12/12 05:54:42;;;;;;;29.83;12.05;;;;;;;;;;5054334;28;20032;-67
2020/12/12 05:57:07;;;;;;;25.57;13.43;;;;;;;;;;5062595;28;20021;-67
2020/12/12 05:59:33;;;;;;;25.88;13.63;;;;;;;;;;5052541;28;20345;-67
2020/12/12 06:02:02;;;;;;;26.58;13.10;;;;;;;;;;5051778;28;20025;-67
2020/12/12 06:04:30;;;;;;;28.55;13.82;;;;;;;;;;5068141;28;20397;-67
2020/12/12 06:06:57;;;;;;;31.45;14.40;;;;;;;;;;5064543;28;20012;-67
2020/12/12 06:09:26;;;;;;;25.33;12.35;;;;;;;;;;5060221;28;20405;-67
2020/12/12 06:11:54;;;;;;;25.58;12.43;;;;;;;;;;5056968;28;20029;-68
2020/12/12 06:14:22;;;;;;;23.65;11.32;;;;;;;;;;5068132;28;20119;-67
2020/12/12 06:16:48;;;;;;;27.55;12.40;;;;;;;;;;5068109;28;20027;-67
2020/12/12 06:19:14;;;;;;;27.50;11.98;;;;;;;;;;5062690;28;20024;-68
2020/12/12 06:21:40;;;;;;;19.80;11.00;;;;;;;;;;5064129;28;20425;-68
2020/12/12 06:24:06;;;;;;;24.10;12.25;;;;;;;;;;5070995;28;20628;-68
2020/12/12 06:26:37;;;;;;;21.65;10.10;;;;;;;;;;5072741;28;20045;-67
2020/12/12 06:29:02;;;;;;;;;;;;;;;;;;5062895;28;20027;-68
2020/12/12 06:31:27;;;;;;;20.05;10.25;;;;;;;;;;5071586;28;19908;-67
2020/12/12 06:33:54;;;;;;;18.88;8.02;;;;;;;;;;5063226;28;20354;-67
2020/12/12 06:36:26;;;;;;;19.40;9.75;;;;;;;;;;5072993;28;20024;-67
2020/12/12 06:39:11;;;;;;;21.60;11.43;;;;;;;;;;5063246;28;20021;-66
2020/12/12 06:41:36;;;;;;;11.65;6.50;;;;;;;;;;5060931;28;20025;-67
2020/12/12 06:44:03;;;;;;;19.17;9.82;;;;;;;;;;5064121;28;20615;-66
2020/12/12 06:46:48;;;;;;;21.65;11.27;;;;;;;;;;5037660;28;20424;-67
2020/12/12 06:49:13;;;;;;;15.85;8.32;;;;;;;;;;5066153;28;20036;-67
2020/12/12 06:51:38;;;;;;;19.00;10.03;;;;;;;;;;5057979;28;20040;-67
2020/12/12 06:54:07;;;;;;;12.63;6.90;;;;;;;;;;5057769;28;20275;-67
2020/12/12 06:56:33;;;;;;;21.98;9.98;;;;;;;;;;5061466;28;20263;-66
2020/12/12 06:59:18;;;;;;;21.33;10.30;;;;;;;;;;5057364;28;20021;-67
2020/12/12 07:01:50;;;;;;;21.00;10.57;;;;;;;;;;5045472;28;20017;-67
2020/12/12 07:04:21;;;;;;;18.98;9.98;;;;;;;;;;5058772;28;20016;-67
2020/12/12 07:06:54;;;;;;;20.67;10.50;;;;;;;;;;5066946;28;20028;-67
2020/12/12 07:09:19;;;;;;;13.90;8.40;;;;;;;;;;5066961;28;20020;-67
2020/12/12 07:11:46;;;;;;;18.47;9.00;;;;;;;;;;5070284;28;20078;-66
2020/12/12 07:14:11;;;;;;;15.30;8.20;;;;;;;;;;5070309;28;20282;-66
2020/12/12 07:16:37;;;;;;;19.83;9.48;;;;;;;;;;5069378;28;20024;-67
2020/12/12 07:19:02;;;;;;;16.10;7.35;;;;;;;;;;5067412;28;20060;-67
2020/12/12 07:21:28;;;;;;;13.05;5.55;;;;;;;;;;5057951;28;20017;-66
2020/12/12 07:23:53;;;;;;;19.07;8.17;;;;;;;;;;5055868;28;20078;-67
2020/12/12 07:26:18;;;;;;;20.33;10.33;;;;;;;;;;5060071;28;20762;-68
2020/12/12 07:28:43;;;;;;;19.35;5.55;;;;;;;;;;5052677;28;20294;-67
2020/12/12 07:31:08;;;;;;;17.13;7.35;;;;;;;;;;5058628;28;20021;-67
2020/12/12 07:33:34;;;;;;;20.95;10.00;;;;;;;;;;5069239;28;20016;-68
2020/12/12 07:35:59;;;;;;;15.77;8.88;;;;;;;;;;5056298;28;20028;-67
2020/12/12 07:38:24;;;;;;;22.92;9.23;;;;;;;;;;5065620;28;20059;-68
2020/12/12 07:40:50;;;;;;;16.70;9.18;;;;;;;;;;5062612;28;20458;-67
2020/12/12 07:43:15;;;;;;;19.45;8.68;;;;;;;;;;5093202;22;20039;-66
2020/12/12 07:48:24;;;;;;;19.15;10.13;;;;;;;;;;5035367;28;20078;-66
2020/12/12 07:50:49;;;;;;;9.07;5.37;;;;;;;;;;5040186;28;20021;-65
2020/12/12 07:53:16;;;;;;;15.63;8.38;;;;;;;;;;5034111;28;20279;-67
2020/12/12 07:55:46;;;;;;;21.17;11.73;;;;;;;;;;5033798;28;20025;-69
2020/12/12 07:58:15;;;;;;;15.48;6.78;;;;;;;;;;5035193;28;20030;-65
2020/12/12 08:00:40;;;;;;;18.90;8.02;;;;;;;;;;5033739;28;20028;-65
2020/12/12 08:03:05;;;;;;;25.77;12.40;;;;;;;;;;5035086;28;20022;-71
2020/12/12 08:05:31;;;;;;;26.45;10.90;;;;;;;;;;5033364;28;20271;-65
2020/12/12 08:07:56;;;;;;;10.15;5.80;;;;;;;;;;5035020;28;20060;-66
2020/12/12 08:10:21;;;;;;;24.10;11.32;;;;;;;;;;5034341;28;20065;-65
2020/12/12 08:12:47;;;;;;;22.73;10.73;;;;;;;;;;5017124;28;20117;-66
2020/12/12 08:15:23;;;;;;;8.95;4.05;;;;;;;;;;5031104;28;20276;-67
2020/12/12 08:17:49;;;;;;;26.70;11.35;;;;;;;;;;5013705;28;20021;-66
2020/12/12 08:20:15;;;;;;;17.52;7.50;;;;;;;;;;5034495;28;20033;-65
2020/12/12 08:22:41;;;;;;;21.77;11.18;;;;;;;;;;5035031;28;20521;-66
2020/12/12 08:25:07;;;;;;;20.02;11.32;;;;;;;;;;5036631;28;20017;-65
2020/12/12 08:27:33;;;;;;;27.17;12.90;;;;;;;;;;5030742;28;20022;-69
2020/12/12 08:29:59;;;;;;;23.83;12.45;;;;;;;;;;5027039;28;20397;-65
2020/12/12 08:32:28;;;;;;;25.02;12.88;;;;;;;;;;5029875;28;20024;-65
2020/12/12 08:35:08;;;;;;;20.65;10.95;;;;;;;;;;5033125;28;20021;-67
2020/12/12 08:37:33;;;;;;;25.35;11.93;;;;;;;;;;5031795;28;20021;-66
2020/12/12 08:40:03;;;;;;;26.02;11.93;;;;;;;;;;5033544;28;20169;-67
2020/12/12 08:42:28;;;;;;;23.73;11.02;;;;;;;;;;5034573;28;20056;-67
2020/12/12 08:44:53;;;;;;;25.53;11.57;;;;;;;;;;5031211;28;20030;-67
2020/12/12 08:47:19;;;;;;;22.37;11.37;;;;;;;;;;5031500;28;20752;-67
2020/12/12 08:49:53;;;;;;;18.67;8.03;;;;;;;;;;5031690;28;20299;-67
2020/12/12 08:52:24;;;;;;;28.02;12.70;;;;;;;;;;5029002;28;20260;-67
2020/12/12 08:54:57;;;;;;;25.90;11.90;;;;;;;;;;5036426;28;20066;-66
2020/12/12 08:57:22;;;;;;;19.33;9.38;;;;;;;;;;5030258;28;20488;-67
2020/12/12 08:59:56;;;;;;;30.47;12.43;;;;;;;;;;5029670;28;20021;-67
2020/12/12 09:02:21;;;;;;;13.90;6.85;;;;;;;;;;5032634;28;20403;-67
2020/12/12 09:05:04;;;;;;;20.03;8.03;;;;;;;;;;5033225;28;20103;-67
2020/12/12 09:07:29;;;;;;;14.00;7.72;;;;;;;;;;5034374;28;20291;-67
2020/12/12 09:10:05;;;;;;;26.40;13.05;;;;;;;;;;5033135;28;20085;-67
2020/12/12 09:12:41;;;;;;;12.60;5.60;;;;;;;;;;5032526;28;20112;-67
2020/12/12 09:15:06;;;;;;;13.98;6.63;;;;;;;;;;5033344;28;20025;-66
2020/12/12 09:17:32;;;;;;;26.48;11.77;;;;;;;;;;5028221;28;20048;-67
2020/12/12 09:19:57;;;;;;;22.35;10.48;;;;;;;;;;5026224;28;20024;-67
2020/12/12 09:22:22;;;;;;;22.60;12.33;;;;;;;;;;5030414;28;20024;-67
2020/12/12 09:24:47;;;;;;;24.38;12.38;;;;;;;;;;5030127;28;20276;-66
2020/12/12 09:27:12;;;;;;;32.17;10.20;;;;;;;;;;5029250;28;20021;-67
2020/12/12 09:29:37;;;;;;;23.85;9.45;;;;;;;;;;5028541;28;20350;-67
2020/12/12 09:32:03;;;;;;;15.17;7.73;;;;;;;;;;5029410;28;20045;-67
2020/12/12 09:34:28;;;;;;;17.15;8.30;;;;;;;;;;5029417;28;20280;-67
2020/12/12 09:36:53;;;;;;;29.63;11.47;;;;;;;;;;5029540;28;20156;-67
2020/12/12 09:39:18;;;;;;;13.95;6.05;;;;;;;;;;5028216;28;20287;-67
2020/12/12 09:41:43;;;;;;;23.80;11.32;;;;;;;;;;5029730;28;20030;-67
2020/12/12 09:44:09;;;;;;;22.85;10.50;;;;;;;;;;5026451;28;20025;-67
2020/12/12 09:46:34;;;;;;;15.83;8.17;;;;;;;;;;5029148;28;20022;-67
2020/12/12 09:48:59;;;;;;;24.17;11.57;;;;;;;;;;5033723;28;20764;-67
2020/12/12 09:51:24;;;;;;;24.67;13.10;;;;;;;;;;5032659;28;20144;-67
2020/12/12 09:53:52;;;;;;;26.73;11.37;;;;;;;;;;5032630;28;20044;-69
2020/12/12 09:56:17;;;;;;;17.83;8.18;;;;;;;;;;5033209;28;20268;-67
2020/12/12 09:58:42;;;;;;;24.45;12.73;;;;;;;;;;5033389;28;20393;-67
2020/12/12 10:01:08;;;;;;;24.45;11.57;;;;;;;;;;5032334;28;20108;-69
2020/12/12 10:03:33;;;;;;;26.48;12.23;;;;;;;;;;5032021;28;20026;-67
2020/12/12 10:05:58;;;;;;;27.23;10.88;;;;;;;;;;5015306;28;20083;-68
2020/12/12 10:08:24;;;;;;;26.58;13.23;;;;;;;;;;5031538;28;20052;-67
2020/12/12 10:10:49;;;;;;;18.93;9.70;;;;;;;;;;5032442;28;20107;-67
2020/12/12 10:13:14;;;;;;;20.33;6.03;;;;;;;;;;5032092;28;20275;-70
2020/12/12 10:15:39;;;;;;;24.15;11.25;;;;;;;;;;5031614;28;20021;-67
2020/12/12 10:18:08;;;;;;;15.90;7.57;;;;;;;;;;5029696;28;20460;-67
2020/12/12 10:20:33;;;;;;;16.70;8.13;;;;;;;;;;5031883;28;20355;-68
2020/12/12 10:22:58;;;;;;;6.55;3.25;;;;;;;;;;5041597;28;20032;-67
2020/12/12 10:25:23;;;;;;;18.23;9.27;;;;;;;;;;5032836;28;20071;-67
2020/12/12 10:27:49;;;;;;;22.15;10.40;;;;;;;;;;5030197;28;20516;-68
2020/12/12 10:30:14;;;;;;;21.95;9.07;;;;;;;;;;5033194;28;20021;-67
2020/12/12 10:32:40;;;;;;;20.20;10.60;;;;;;;;;;5032502;28;20025;-67
2020/12/12 10:35:06;;;;;;;26.38;12.63;;;;;;;;;;5033200;28;20049;-67
2020/12/12 10:37:31;;;;;;;23.55;11.45;;;;;;;;;;5032224;28;20031;-68
2020/12/12 10:40:08;;;;;;;23.60;9.88;;;;;;;;;;5036597;28;20026;-67
2020/12/12 10:42:33;;;;;;;25.75;11.52;;;;;;;;;;5040462;28;20112;-67
2020/12/12 10:44:59;;;;;;;24.10;10.52;;;;;;;;;;5031869;28;20108;-67
2020/12/12 10:47:24;;;;;;;25.55;11.75;;;;;;;;;;5032609;28;20346;-67
2020/12/12 10:49:50;;;;;;;22.42;11.45;;;;;;;;;;5038846;28;20029;-69
2020/12/12 10:52:16;;;;;;;22.42;9.85;;;;;;;;;;5035125;28;20029;-68
2020/12/12 10:54:45;;;;;;;24.40;10.95;;;;;;;;;;5037082;28;20064;-67
2020/12/12 10:57:10;;;;;;;26.05;12.52;;;;;;;;;;4995869;28;20033;-68
2020/12/12 10:59:35;;;;;;;23.58;11.07;;;;;;;;;;4994167;28;20379;-67
2020/12/12 11:02:00;;;;;;;18.92;9.65;;;;;;;;;;5018895;28;20061;-68
2020/12/12 11:04:25;;;;;;;23.70;11.13;;;;;;;;;;5014510;28;20022;-67
2020/12/12 11:06:51;;;;;;;27.13;13.23;;;;;;;;;;5018277;28;20481;-67
2020/12/12 11:09:16;;;;;;;22.70;9.80;;;;;;;;;;5034990;28;20071;-70
2020/12/12 11:11:42;;;;;;;18.17;9.10;;;;;;;;;;5052423;28;20066;-68
2020/12/12 11:14:07;;;;;;;20.60;9.27;;;;;;;;;;5046032;28;20029;-68
2020/12/12 11:16:32;;;;;;;27.05;13.25;;;;;;;;;;5025445;28;20321;-68
2020/12/12 11:18:58;;;;;;;23.88;12.13;;;;;;;;;;5030411;28;20425;-69
2020/12/12 11:21:23;;;;;;;24.63;12.30;;;;;;;;;;5031911;28;20057;-68
2020/12/12 11:23:48;;;;;;;21.98;10.85;;;;;;;;;;5030934;28;20017;-69
2020/12/12 11:26:14;;;;;;;26.48;12.27;;;;;;;;;;5031986;28;20025;-68
2020/12/12 11:28:40;;;;;;;27.55;12.45;;;;;;;;;;5031427;28;20466;-69
2020/12/12 11:31:05;;;;;;;23.67;11.93;;;;;;;;;;5031481;28;20373;-68
2020/12/12 11:33:31;;;;;;;25.25;10.95;;;;;;;;;;5021898;28;20102;-68
2020/12/12 11:36:13;;;;;;;27.10;12.50;;;;;;;;;;5026605;28;20393;-68
2020/12/12 11:46:37;;;;;;;31.13;13.77;;;;;;;;;;5031250;28;20379;-68
2020/12/12 11:49:03;;;;;;;26.55;12.65;;;;;;;;;;5030993;28;20017;-67
2020/12/12 11:51:28;;;;;;;20.77;10.35;;;;;;;;;;5030950;28;20047;-67
2020/12/12 11:53:54;;;;;;;15.90;7.50;;;;;;;;;;5012455;28;20374;-68
2020/12/12 11:56:20;;;;;;;15.98;7.15;;;;;;;;;;5022095;28;20087;-67
2020/12/12 11:58:45;;;;;;;24.75;12.13;;;;;;;;;;5031091;28;20022;-67
2020/12/12 12:01:10;;;;;;;18.73;8.35;;;;;;;;;;5031503;28;20067;-71
2020/12/12 12:03:35;;;;;;;22.33;12.27;;;;;;;;;;5028406;28;20033;-68
2020/12/12 12:06:00;;;;;;;23.33;10.00;;;;;;;;;;5030793;28;20497;-69
2020/12/12 12:08:43;;;;;;;24.75;12.43;;;;;;;;;;5036025;28;20302;-67
2020/12/12 12:11:18;;;;;;;15.27;6.57;;;;;;;;;;5030268;28;20109;-67
2020/12/12 12:13:43;;;;;;;21.65;9.93;;;;;;;;;;5027815;28;20024;-67
2020/12/12 12:16:09;;;;;;;26.75;12.98;;;;;;;;;;5031912;28;20013;-67
2020/12/12 12:18:35;;;;;;;21.50;11.65;;;;;;;;;;5027646;28;20028;-68
2020/12/12 12:21:01;;;;;;;8.97;4.53;;;;;;;;;;5028410;28;20021;-68
2020/12/12 12:23:26;;;;;;;29.10;14.52;;;;;;;;;;5028426;28;20347;-69
2020/12/12 12:25:52;;;;;;;25.88;11.05;;;;;;;;;;5028863;28;20525;-67
2020/12/12 12:28:18;;;;;;;27.08;12.63;;;;;;;;;;5028296;28;20100;-68
2020/12/12 12:30:44;;;;;;;23.33;11.25;;;;;;;;;;5028884;28;20044;-67
2020/12/12 12:33:09;;;;;;;29.65;14.30;;;;;;;;;;5028206;28;20024;-68
2020/12/12 12:35:34;;;;;;;30.20;12.07;;;;;;;;;;5028448;28;20021;-68
2020/12/12 12:37:59;;;;;;;22.43;10.80;;;;;;;;;;5028676;28;20338;-68
2020/12/12 12:40:24;;;;;;;24.70;11.30;;;;;;;;;;5028486;28;20307;-68
2020/12/12 12:42:49;;;;;;;23.42;11.07;;;;;;;;;;5028422;28;20307;-68
2020/12/12 12:45:15;;;;;;;21.67;11.55;;;;;;;;;;5030153;28;20356;-68
2020/12/12 12:47:40;;;;;;;26.42;12.02;;;;;;;;;;5022780;28;20398;-68
2020/12/12 12:50:05;;;;;;;25.97;12.13;;;;;;;;;;5027518;28;20113;-68
2020/12/12 12:52:30;;;;;;;22.02;10.85;;;;;;;;;;5028525;28;20256;-67
2020/12/12 12:54:55;;;;;;;23.15;12.20;;;;;;;;;;5025780;28;20083;-68
2020/12/12 12:57:20;;;;;;;30.83;12.63;;;;;;;;;;5025926;28;20392;-68
2020/12/12 12:59:46;;;;;;;28.13;13.30;;;;;;;;;;5028050;28;20318;-68
2020/12/12 13:02:11;;;;;;;21.95;11.18;;;;;;;;;;5028204;28;20266;-68
2020/12/12 13:04:36;;;;;;;27.00;13.00;;;;;;;;;;5027739;28;20314;-68
2020/12/12 13:07:01;;;;;;;25.83;11.63;;;;;;;;;;5027715;28;20283;-68
2020/12/12 13:09:26;;;;;;;30.67;12.93;;;;;;;;;;5028073;28;20083;-68
2020/12/12 13:11:51;;;;;;;25.48;10.98;;;;;;;;;;5027695;28;20048;-68
2020/12/12 13:14:17;;;;;;;19.83;9.93;;;;;;;;;;5027605;28;20510;-66
2020/12/12 13:16:42;;;;;;;15.60;6.63;;;;;;;;;;5042265;28;20279;-68
2020/12/12 13:24:19;;;;;;;23.20;11.80;;;;;;;;;;5034295;28;20260;-68
2020/12/12 13:26:44;;;;;;;19.08;8.20;;;;;;;;;;5034094;28;20029;-68
2020/12/12 13:31:53;;;;;;;23.33;11.57;;;;;;;;;;5033693;28;20135;-68
2020/12/12 13:34:18;;;;;;;26.97;12.13;;;;;;;;;;5034277;28;20033;-69
2020/12/12 13:36:43;;;;;;;27.55;12.80;;;;;;;;;;5033587;28;20270;-67
2020/12/12 13:39:09;;;;;;;32.08;14.85;;;;;;;;;;5034445;28;20513;-68
2020/12/12 13:41:34;;;;;;;29.95;12.27;;;;;;;;;;5034125;28;20493;-68
2020/12/12 13:43:59;;;;;;;29.80;13.65;;;;;;;;;;5058356;22;20049;-74
2020/12/12 13:46:24;;;;;;;35.07;13.93;;;;;;;;;;5053429;28;20105;-74
2020/12/12 13:48:50;;;;;;;27.05;13.57;;;;;;;;;;5056211;28;20283;-74
2020/12/12 13:51:15;;;;;;;25.23;11.95;;;;;;;;;;5055409;28;20029;-74
2020/12/12 13:53:41;;;;;;;30.88;12.85;;;;;;;;;;5053486;28;20025;-74
2020/12/12 13:56:07;;;;;;;22.95;11.85;;;;;;;;;;5038455;28;20023;-74
2020/12/12 13:58:32;;;;;;;30.92;14.65;;;;;;;;;;5035475;28;20108;-74
2020/12/12 14:00:57;;;;;;;32.13;14.10;;;;;;;;;;5036226;28;20040;-74
2020/12/12 14:03:23;;;;;;;26.25;12.70;;;;;;;;;;5036037;28;20024;-75
2020/12/12 14:05:52;;;;;;;26.65;13.55;;;;;;;;;;5035967;28;20036;-74
2020/12/12 14:18:37;;;;;;;27.35;13.30;;;;;;;;;;5004285;28;20334;-74
2020/12/12 14:20:39;;;;;;;31.05;13.80;;;;;;;;;;5027349;28;20033;-74
2020/12/12 14:24:33;;;;;;;34.42;13.60;;;;;;;;;;5036574;28;20029;-74
2020/12/12 14:29:42;;;;;;;29.13;13.65;;;;;;;;;;5035387;28;20252;-74
2020/12/12 14:32:07;;;;;;;37.93;15.40;;;;;;;;;;5035439;28;20385;-74
2020/12/12 14:34:33;;;;;;;32.33;14.57;;;;;;;;;;5035360;28;20253;-75
2020/12/12 14:36:58;;;;;;;32.95;15.73;;;;;;;;;;5037852;28;20024;-74
2020/12/12 14:39:24;;;;;;;30.92;14.32;;;;;;;;;;5031848;28;20029;-74
2020/12/12 14:41:52;;;;;;;33.47;14.10;;;;;;;;;;5032565;28;20075;-74
2020/12/12 14:44:17;;;;;;;34.10;14.80;;;;;;;;;;5034717;28;20029;-74
2020/12/12 14:46:46;;;;;;;29.77;13.63;;;;;;;;;;5038493;28;20021;-74
2020/12/12 14:49:11;;;;;;;37.30;15.45;;;;;;;;;;5031517;28;20355;-74